createdAt,value
2018-04-23T00:01:19.446Z,20.82
2018-04-23T00:03:46.913Z,20.81
2018-04-23T00:06:14.327Z,20.78
2018-04-23T00:08:41.764Z,20.77
2018-04-23T00:11:09.193Z,20.73
2018-04-23T00:13:36.685Z,20.73
2018-04-23T00:16:04.071Z,20.70
2018-04-23T00:18:32.205Z,20.65
2018-04-23T00:20:59.674Z,20.60
2018-04-23T00:23:27.126Z,20.57
2018-04-23T00:25:54.530Z,20.57
2018-04-23T00:28:22.180Z,20.54
2018-04-23T00:30:49.773Z,20.58
2018-04-23T00:33:17.209Z,20.62
2018-04-23T00:35:44.651Z,20.66
2018-04-23T00:38:12.083Z,20.66
2018-04-23T00:40:39.511Z,20.68
2018-04-23T00:43:06.978Z,20.69
2018-04-23T00:45:34.443Z,20.69
2018-04-23T00:48:01.948Z,20.68
2018-04-23T00:50:29.414Z,20.68
2018-04-23T00:53:08.800Z,20.67
2018-04-23T00:55:36.274Z,20.65
2018-04-23T00:58:03.674Z,20.62
2018-04-23T01:00:31.093Z,20.49
2018-04-23T01:02:58.491Z,20.39
2018-04-23T01:05:25.887Z,20.35
2018-04-23T01:07:53.311Z,20.30
2018-04-23T01:10:20.713Z,20.26
2018-04-23T01:12:49.021Z,20.24
2018-04-23T01:15:16.494Z,20.21
2018-04-23T01:17:43.889Z,20.15
2018-04-23T01:20:11.412Z,20.10
2018-04-23T01:22:39.784Z,20.09
2018-04-23T01:25:07.217Z,20.02
2018-04-23T01:27:34.637Z,19.94
2018-04-23T01:30:02.031Z,19.92
2018-04-23T01:32:29.500Z,19.89
2018-04-23T01:34:56.932Z,19.91
2018-04-23T01:37:24.343Z,19.87
2018-04-23T01:39:52.011Z,19.82
2018-04-23T01:42:19.479Z,19.82
2018-04-23T01:44:46.941Z,19.76
2018-04-23T01:47:14.398Z,19.78
2018-04-23T01:49:41.844Z,19.76
2018-04-23T01:52:09.289Z,19.76
2018-04-23T01:54:37.497Z,19.71
2018-04-23T01:57:04.953Z,19.64
2018-04-23T01:59:33.046Z,19.63
2018-04-23T02:02:00.508Z,19.61
2018-04-23T02:04:27.937Z,19.62
2018-04-23T02:06:55.371Z,19.71
2018-04-23T02:09:22.838Z,19.74
2018-04-23T02:11:50.239Z,19.80
2018-04-23T02:14:17.657Z,19.92
2018-04-23T02:16:45.103Z,19.92
2018-04-23T02:19:12.549Z,19.97
2018-04-23T02:21:39.939Z,20.02
2018-04-23T02:24:07.424Z,20.05
2018-04-23T02:26:35.286Z,20.08
2018-04-23T02:29:02.770Z,20.08
2018-04-23T02:31:30.227Z,20.08
2018-04-23T02:33:57.679Z,20.10
2018-04-23T02:36:25.098Z,20.10
2018-04-23T02:38:52.907Z,20.10
2018-04-23T02:41:20.375Z,20.16
2018-04-23T02:43:47.834Z,20.12
2018-04-23T02:46:15.267Z,20.10
2018-04-23T02:48:43.309Z,20.13
2018-04-23T02:51:11.131Z,20.16
2018-04-23T02:53:38.533Z,20.15
2018-04-23T02:56:06.009Z,20.13
2018-04-23T02:58:33.510Z,20.12
2018-04-23T03:01:00.985Z,20.03
2018-04-23T03:03:28.416Z,20.00
2018-04-23T03:05:55.887Z,20.01
2018-04-23T03:08:23.468Z,20.01
2018-04-23T03:10:50.932Z,19.98
2018-04-23T03:13:18.339Z,19.96
2018-04-23T03:15:45.779Z,19.92
2018-04-23T03:18:13.211Z,19.92
2018-04-23T03:20:40.681Z,19.91
2018-04-23T03:23:08.111Z,19.92
2018-04-23T03:25:35.565Z,19.97
2018-04-23T03:28:03.036Z,20.01
2018-04-23T03:30:30.471Z,19.94
2018-04-23T03:32:57.925Z,19.87
2018-04-23T03:35:25.325Z,19.79
2018-04-23T03:37:52.810Z,19.74
2018-04-23T03:40:20.179Z,19.68
2018-04-23T03:42:47.613Z,19.63
2018-04-23T03:45:15.091Z,19.55
2018-04-23T03:47:42.563Z,19.44
2018-04-23T03:50:09.978Z,19.43
2018-04-23T03:52:37.405Z,19.48
2018-04-23T03:55:04.833Z,19.53
2018-04-23T03:57:32.385Z,19.55
2018-04-23T03:59:59.977Z,19.49
2018-04-23T04:02:27.383Z,19.34
2018-04-23T04:04:54.808Z,19.29
2018-04-23T04:07:22.276Z,19.31
2018-04-23T04:09:49.737Z,19.23
2018-04-23T04:12:29.020Z,19.18
2018-04-23T04:15:08.186Z,19.20
2018-04-23T04:17:36.280Z,19.21
2018-04-23T04:20:03.685Z,19.11
2018-04-23T04:22:31.128Z,19.03
2018-04-23T04:24:58.511Z,18.98
2018-04-23T04:27:25.947Z,18.96
2018-04-23T04:29:53.363Z,19.00
2018-04-23T04:32:20.787Z,19.01
2018-04-23T04:34:48.241Z,19.04
2018-04-23T04:37:15.700Z,19.09
2018-04-23T04:39:43.132Z,19.08
2018-04-23T04:42:10.588Z,18.92
2018-04-23T04:44:38.150Z,18.76
2018-04-23T04:47:05.621Z,18.70
2018-04-23T04:49:33.079Z,18.59
2018-04-23T04:52:00.564Z,18.45
2018-04-23T04:54:28.020Z,18.43
2018-04-23T04:56:55.449Z,18.45
2018-04-23T04:59:22.987Z,18.50
2018-04-23T05:01:50.459Z,18.57
2018-04-23T05:04:18.002Z,18.58
2018-04-23T05:06:45.479Z,18.59
2018-04-23T05:09:12.900Z,18.61
2018-04-23T05:11:40.290Z,18.64
2018-04-23T05:14:07.740Z,18.67
2018-04-23T05:16:35.290Z,18.73
2018-04-23T05:19:02.717Z,18.74
2018-04-23T05:21:30.155Z,18.80
2018-04-23T05:23:57.582Z,18.87
2018-04-23T05:26:25.019Z,18.94
2018-04-23T05:28:52.476Z,19.05
2018-04-23T05:31:19.903Z,19.09
2018-04-23T05:33:47.340Z,19.12
2018-04-23T05:36:14.738Z,19.21
2018-04-23T05:38:42.170Z,19.25
2018-04-23T05:41:09.600Z,19.31
2018-04-23T05:43:37.200Z,19.46
2018-04-23T05:46:04.665Z,19.64
2018-04-23T05:48:32.447Z,19.69
2018-04-23T05:50:59.874Z,19.84
2018-04-23T05:53:27.326Z,19.99
2018-04-23T05:55:54.813Z,20.00
2018-04-23T05:58:22.267Z,20.06
2018-04-23T06:00:49.670Z,20.09
2018-04-23T06:03:17.079Z,20.16
2018-04-23T06:05:44.524Z,20.23
2018-04-23T06:08:12.138Z,20.33
2018-04-23T06:10:39.967Z,20.57
2018-04-23T06:13:07.455Z,21.02
2018-04-23T06:15:34.883Z,21.46
2018-04-23T06:18:02.296Z,21.72
2018-04-23T06:20:29.859Z,21.87
2018-04-23T06:22:57.324Z,21.91
2018-04-23T06:25:24.751Z,21.92
2018-04-23T06:27:52.307Z,22.10
2018-04-23T06:30:19.739Z,22.42
2018-04-23T06:32:47.239Z,22.75
2018-04-23T06:35:14.697Z,23.15
2018-04-23T06:37:42.195Z,23.53
2018-04-23T06:40:09.642Z,23.76
2018-04-23T06:42:37.111Z,23.82
2018-04-23T06:45:04.590Z,24.19
2018-04-23T06:47:33.235Z,24.45
2018-04-23T06:50:00.691Z,24.43
2018-04-23T06:52:28.124Z,24.16
2018-04-23T06:54:56.348Z,24.49
2018-04-23T06:57:23.815Z,24.98
2018-04-23T06:59:51.276Z,25.21
2018-04-23T07:02:18.823Z,25.01
2018-04-23T07:04:46.241Z,24.32
2018-04-23T07:07:13.628Z,23.98
2018-04-23T07:09:41.099Z,24.38
2018-04-23T07:12:08.636Z,24.83
2018-04-23T07:14:36.099Z,24.85
2018-04-23T07:17:03.537Z,24.41
2018-04-23T07:19:31.148Z,23.90
2018-04-23T07:21:58.568Z,23.76
2018-04-23T07:24:26.141Z,23.44
2018-04-23T07:26:53.671Z,23.33
2018-04-23T07:29:21.185Z,23.26
2018-04-23T07:31:48.603Z,23.22
2018-04-23T07:34:16.071Z,23.18
2018-04-23T07:36:43.475Z,23.04
2018-04-23T07:39:11.240Z,22.77
2018-04-23T07:41:38.659Z,22.68
2018-04-23T07:44:06.237Z,22.77
2018-04-23T07:46:33.673Z,23.18
2018-04-23T07:49:01.109Z,24.06
2018-04-23T07:51:28.590Z,24.31
2018-04-23T07:53:56.249Z,24.61
2018-04-23T07:56:23.718Z,25.12
2018-04-23T07:58:51.187Z,25.28
2018-04-23T08:01:18.670Z,25.73
2018-04-23T08:03:46.095Z,25.99
2018-04-23T08:06:13.531Z,26.45
2018-04-23T08:08:40.986Z,26.30
2018-04-23T08:11:08.467Z,26.56
2018-04-23T08:13:35.895Z,26.66
2018-04-23T08:16:03.316Z,25.92
2018-04-23T08:18:30.832Z,26.07
2018-04-23T08:20:58.280Z,26.23
2018-04-23T08:23:25.750Z,26.42
2018-04-23T08:25:53.195Z,26.85
2018-04-23T08:28:20.644Z,27.40
2018-04-23T08:30:48.070Z,27.48
2018-04-23T08:33:15.541Z,27.70
2018-04-23T08:35:42.998Z,27.87
2018-04-23T08:38:10.507Z,27.84
2018-04-23T08:40:37.933Z,26.38
2018-04-23T08:43:05.356Z,25.36
2018-04-23T08:45:32.839Z,25.33
2018-04-23T08:48:00.305Z,25.96
2018-04-23T08:50:28.758Z,26.72
2018-04-23T08:52:56.884Z,27.08
2018-04-23T08:55:24.337Z,26.64
2018-04-23T08:57:51.830Z,26.25
2018-04-23T09:00:19.972Z,25.89
2018-04-23T09:02:47.370Z,25.86
2018-04-23T09:05:14.809Z,25.80
2018-04-23T09:07:42.232Z,25.96
2018-04-23T09:10:09.637Z,26.10
2018-04-23T09:12:37.077Z,26.42
2018-04-23T09:15:04.595Z,26.65
2018-04-23T09:17:32.673Z,26.61
2018-04-23T09:20:00.110Z,26.60
2018-04-23T09:22:27.585Z,26.32
2018-04-23T09:24:55.089Z,26.60
2018-04-23T09:27:22.495Z,27.15
2018-04-23T09:29:49.922Z,27.59
2018-04-23T09:32:17.355Z,28.10
2018-04-23T09:34:44.813Z,28.64
2018-04-23T09:37:12.253Z,29.03
2018-04-23T09:39:39.705Z,28.84
2018-04-23T09:42:07.223Z,28.44
2018-04-23T09:44:34.732Z,27.93
2018-04-23T09:47:02.092Z,27.43
2018-04-23T09:49:29.527Z,26.89
2018-04-23T09:51:56.964Z,26.77
2018-04-23T09:54:24.414Z,26.60
2018-04-23T09:56:51.886Z,26.32
2018-04-23T09:59:19.314Z,26.15
2018-04-23T10:01:50.600Z,26.02
2018-04-23T10:04:20.940Z,26.01
2018-04-23T10:06:48.372Z,26.00
2018-04-23T10:09:15.839Z,25.88
2018-04-23T10:11:44.008Z,25.69
2018-04-23T10:14:11.426Z,25.44
2018-04-23T10:16:39.015Z,25.23
2018-04-23T10:19:06.414Z,25.12
2018-04-23T10:21:33.910Z,25.26
2018-04-23T10:24:02.324Z,25.21
2018-04-23T10:26:29.833Z,25.34
2018-04-23T10:28:57.374Z,25.49
2018-04-23T10:31:24.900Z,26.14
2018-04-23T10:33:52.455Z,26.58
2018-04-23T10:36:19.966Z,26.89
2018-04-23T10:38:47.366Z,26.85
2018-04-23T10:41:14.805Z,26.71
2018-04-23T10:43:42.323Z,26.65
2018-04-23T10:46:09.797Z,26.72
2018-04-23T10:48:37.297Z,26.44
2018-04-23T10:51:04.772Z,26.24
2018-04-23T10:53:32.257Z,26.56
2018-04-23T10:55:59.732Z,26.72
2018-04-23T10:58:28.167Z,26.88
2018-04-23T11:00:55.614Z,26.82
2018-04-23T11:03:23.030Z,26.73
2018-04-23T11:05:50.456Z,26.44
2018-04-23T11:08:17.916Z,26.19
2018-04-23T11:10:45.352Z,26.15
2018-04-23T11:13:12.800Z,25.90
2018-04-23T11:15:40.258Z,25.69
2018-04-23T11:18:07.789Z,25.45
2018-04-23T11:20:35.307Z,25.49
2018-04-23T11:23:02.904Z,25.43
2018-04-23T11:25:30.500Z,25.44
2018-04-23T11:27:57.970Z,25.30
2018-04-23T11:30:25.458Z,25.37
2018-04-23T11:32:52.905Z,25.35
2018-04-23T11:35:20.346Z,25.47
2018-04-23T11:37:47.809Z,25.41
2018-04-23T11:40:15.355Z,25.26
2018-04-23T11:42:43.067Z,25.27
2018-04-23T11:45:10.584Z,25.54
2018-04-23T11:47:38.088Z,25.91
2018-04-23T11:50:05.595Z,26.50
2018-04-23T11:52:33.080Z,26.85
2018-04-23T11:55:00.618Z,26.32
2018-04-23T11:57:28.150Z,25.98
2018-04-23T11:59:55.601Z,25.78
2018-04-23T12:02:23.101Z,25.75
2018-04-23T12:04:50.471Z,25.64
2018-04-23T12:07:17.991Z,25.65
2018-04-23T12:09:45.435Z,25.47
2018-04-23T12:12:13.020Z,25.29
2018-04-23T12:14:40.478Z,25.18
2018-04-23T12:17:08.002Z,24.88
2018-04-23T12:19:35.424Z,24.58
2018-04-23T12:22:02.960Z,24.66
2018-04-23T12:24:30.430Z,24.56
2018-04-23T12:26:58.050Z,24.71
2018-04-23T12:29:25.543Z,24.79
2018-04-23T12:31:53.015Z,25.07
2018-04-23T12:34:20.446Z,25.42
2018-04-23T12:36:47.926Z,26.09
2018-04-23T12:39:15.438Z,26.57
2018-04-23T12:41:42.876Z,26.68
2018-04-23T12:44:10.371Z,26.77
2018-04-23T12:46:37.854Z,26.93
2018-04-23T12:49:05.355Z,27.34
2018-04-23T12:51:32.872Z,27.58
2018-04-23T12:54:00.328Z,28.02
2018-04-23T12:56:27.909Z,27.97
2018-04-23T12:58:55.346Z,27.77
2018-04-23T13:01:22.821Z,27.79
2018-04-23T13:03:50.251Z,27.87
2018-04-23T13:06:17.746Z,26.92
2018-04-23T13:08:45.700Z,26.46
2018-04-23T13:11:13.149Z,26.05
2018-04-23T13:13:40.579Z,25.87
2018-04-23T13:16:07.975Z,25.54
2018-04-23T13:18:35.396Z,25.33
2018-04-23T13:21:02.839Z,25.05
2018-04-23T13:23:30.327Z,24.91
2018-04-23T13:25:57.763Z,24.48
2018-04-23T13:28:25.389Z,24.52
2018-04-23T13:30:52.832Z,24.53
2018-04-23T13:33:20.327Z,24.42
2018-04-23T13:35:47.830Z,24.32
2018-04-23T13:38:15.279Z,24.33
2018-04-23T13:40:42.780Z,24.42
2018-04-23T13:43:10.302Z,24.48
2018-04-23T13:45:38.505Z,24.58
2018-04-23T13:48:05.939Z,24.48
2018-04-23T13:50:33.383Z,24.21
2018-04-23T13:53:00.884Z,23.86
2018-04-23T13:55:28.585Z,23.87
2018-04-23T13:57:56.082Z,23.90
2018-04-23T14:00:23.609Z,24.04
2018-04-23T14:02:51.118Z,24.22
2018-04-23T14:05:18.593Z,24.18
2018-04-23T14:07:46.143Z,24.10
2018-04-23T14:10:13.625Z,24.00
2018-04-23T14:12:41.162Z,23.76
2018-04-23T14:15:08.645Z,23.31
2018-04-23T14:17:36.170Z,23.19
2018-04-23T14:20:03.610Z,23.13
2018-04-23T14:22:31.043Z,23.08
2018-04-23T14:29:09.273Z,23.13
2018-04-23T14:31:36.804Z,23.13
2018-04-23T14:34:04.268Z,23.18
2018-04-23T14:36:31.725Z,23.30
2018-04-23T14:38:59.192Z,23.20
2018-04-23T14:41:26.616Z,22.94
2018-04-23T14:43:54.118Z,22.97
2018-04-23T14:46:21.566Z,22.90
2018-04-23T14:48:49.014Z,22.84
2018-04-23T14:51:16.574Z,22.83
2018-04-23T14:53:44.039Z,22.87
2018-04-23T14:56:11.757Z,22.99
2018-04-23T14:58:39.241Z,23.05
2018-04-23T15:01:06.714Z,23.15
2018-04-23T15:03:34.220Z,23.15
2018-04-23T15:06:01.617Z,23.06
2018-04-23T15:08:29.044Z,23.16
2018-04-23T15:10:56.528Z,23.17
2018-04-23T15:13:23.983Z,23.05
2018-04-23T15:15:51.439Z,23.03
2018-04-23T15:18:18.885Z,23.05
2018-04-23T15:20:46.380Z,22.93
2018-04-23T15:23:13.927Z,22.94
2018-04-23T15:25:41.570Z,23.06
2018-04-23T15:28:09.063Z,23.16
2018-04-23T15:30:36.557Z,23.24
2018-04-23T15:33:04.051Z,22.91
2018-04-23T15:35:31.524Z,22.68
2018-04-23T15:37:58.939Z,22.69
2018-04-23T15:40:26.471Z,22.91
2018-04-23T15:42:53.978Z,22.88
2018-04-23T15:45:21.437Z,22.86
2018-04-23T15:47:49.135Z,22.98
2018-04-23T15:50:16.599Z,23.00
2018-04-23T15:52:44.169Z,22.76
2018-04-23T15:55:11.695Z,22.83
2018-04-23T15:57:39.203Z,22.88
2018-04-23T16:00:06.636Z,22.89
2018-04-23T16:02:34.139Z,22.61
2018-04-23T16:05:01.647Z,22.65
2018-04-23T16:07:29.143Z,22.65
2018-04-23T16:09:56.685Z,22.52
2018-04-23T16:12:24.121Z,22.42
2018-04-23T16:14:51.555Z,22.41
2018-04-23T16:17:19.004Z,22.75
2018-04-23T16:19:46.473Z,23.24
2018-04-23T16:22:14.083Z,23.52
2018-04-23T16:24:41.525Z,23.56
2018-04-23T16:27:08.965Z,23.61
2018-04-23T16:29:36.491Z,23.61
2018-04-23T16:32:04.122Z,23.41
2018-04-23T16:34:31.548Z,23.35
2018-04-23T16:36:58.979Z,23.60
2018-04-23T16:39:26.543Z,23.74
2018-04-23T16:41:53.959Z,23.61
2018-04-23T16:44:27.165Z,23.58
2018-04-23T16:46:49.072Z,23.37
2018-04-23T16:49:16.561Z,23.35
2018-04-23T16:51:44.033Z,23.21
2018-04-23T16:54:11.446Z,23.02
2018-04-23T16:56:39.073Z,22.79
2018-04-23T16:59:06.563Z,22.76
2018-04-23T17:01:34.054Z,22.69
2018-04-23T17:04:01.479Z,22.48
2018-04-23T17:06:28.944Z,22.63
2018-04-23T17:08:56.376Z,22.38
2018-04-23T17:11:24.294Z,22.33
2018-04-23T17:13:52.042Z,22.29
2018-04-23T17:16:19.471Z,22.13
2018-04-23T17:18:46.890Z,21.98
2018-04-23T17:21:14.475Z,22.01
2018-04-23T17:23:41.959Z,21.99
2018-04-23T17:26:09.569Z,21.97
2018-04-23T17:28:37.071Z,21.70
2018-04-23T17:31:04.522Z,21.71
2018-04-23T17:33:31.989Z,21.69
2018-04-23T17:35:59.460Z,21.58
2018-04-23T17:38:26.884Z,21.66
2018-04-23T17:40:55.229Z,21.50
2018-04-23T17:43:22.675Z,21.45
2018-04-23T17:45:50.146Z,21.39
2018-04-23T17:48:17.552Z,21.33
2018-04-23T17:50:45.030Z,21.31
2018-04-23T17:53:12.590Z,21.32
2018-04-23T17:55:40.198Z,21.35
2018-04-23T17:58:07.993Z,21.35
2018-04-23T18:00:35.390Z,21.40
2018-04-23T18:03:02.881Z,21.43
2018-04-23T18:05:30.334Z,21.39
2018-04-23T18:07:58.354Z,21.28
2018-04-23T18:10:25.805Z,20.90
2018-04-23T18:12:53.313Z,20.59
2018-04-23T18:15:20.744Z,20.46
2018-04-23T18:17:48.268Z,20.60
2018-04-23T18:20:15.775Z,20.75
2018-04-23T18:22:43.217Z,20.79
2018-04-23T18:25:10.692Z,20.71
2018-04-23T18:27:38.375Z,20.69
2018-04-23T18:30:05.766Z,20.66
2018-04-23T18:32:33.231Z,20.68
2018-04-23T18:35:00.630Z,20.67
2018-04-23T18:37:28.126Z,20.58
2018-04-23T18:39:56.312Z,20.64
2018-04-23T18:42:23.761Z,20.57
2018-04-23T18:44:51.187Z,20.42
2018-04-23T18:47:18.829Z,20.28
2018-04-23T18:49:46.274Z,20.23
2018-04-23T18:52:13.957Z,20.21
2018-04-23T18:54:41.519Z,20.18
2018-04-23T18:57:09.668Z,20.18
2018-04-23T18:59:37.149Z,20.16
2018-04-23T19:02:04.881Z,20.19
2018-04-23T19:04:32.445Z,20.22
2018-04-23T19:06:59.992Z,20.24
2018-04-23T19:09:27.347Z,20.26
2018-04-23T19:11:54.749Z,20.28
2018-04-23T19:14:22.279Z,20.28
2018-04-23T19:16:49.731Z,20.21
2018-04-23T19:19:17.136Z,20.18
2018-04-23T19:21:44.612Z,20.17
2018-04-23T19:24:12.044Z,20.03
2018-04-23T19:26:39.483Z,19.86
2018-04-23T19:29:06.966Z,19.75
2018-04-23T19:31:34.615Z,19.65
2018-04-23T19:34:02.021Z,19.60
2018-04-23T19:36:29.481Z,19.61
2018-04-23T19:38:56.985Z,19.63
2018-04-23T19:41:24.384Z,19.67
2018-04-23T19:43:51.915Z,19.73
2018-04-23T19:46:19.482Z,19.77
2018-04-23T19:48:46.847Z,19.72
2018-04-23T19:51:14.367Z,19.65
2018-04-23T19:53:41.850Z,19.53
2018-04-23T19:56:09.276Z,19.43
2018-04-23T19:58:37.405Z,19.33
2018-04-23T20:01:04.854Z,19.24
2018-04-23T20:03:32.336Z,19.20
2018-04-23T20:05:59.776Z,19.14
2018-04-23T20:08:27.217Z,19.05
2018-04-23T20:10:54.755Z,19.03
2018-04-23T20:13:22.184Z,19.01
2018-04-23T20:15:49.635Z,19.03
2018-04-23T20:18:17.112Z,19.07
2018-04-23T20:20:45.103Z,19.13
2018-04-23T20:23:12.858Z,19.15
2018-04-23T20:25:40.279Z,19.09
2018-04-23T20:28:07.703Z,18.90
2018-04-23T20:30:35.949Z,18.81
2018-04-23T20:33:03.381Z,18.87
2018-04-23T20:35:30.839Z,18.93
2018-04-23T20:37:58.294Z,18.88
2018-04-23T20:40:25.813Z,18.84
2018-04-23T20:42:53.289Z,18.85
2018-04-23T20:45:20.760Z,18.78
2018-04-23T20:47:48.177Z,18.70
2018-04-23T20:50:15.635Z,18.57
2018-04-23T20:52:43.097Z,18.55
2018-04-23T20:55:10.510Z,18.56
2018-04-23T20:57:37.984Z,18.49
2018-04-23T21:00:05.443Z,18.46
2018-04-23T21:02:32.879Z,18.28
2018-04-23T21:05:00.357Z,18.23
2018-04-23T21:07:27.803Z,18.22
2018-04-23T21:09:55.233Z,18.22
2018-04-23T21:12:22.661Z,18.23
2018-04-23T21:14:50.111Z,18.21
2018-04-23T21:17:17.548Z,18.20
2018-04-23T21:19:45.012Z,18.14
2018-04-23T21:22:12.553Z,17.97
2018-04-23T21:24:39.989Z,17.93
2018-04-23T21:27:07.550Z,18.01
2018-04-23T21:29:35.020Z,18.00
2018-04-23T21:32:02.441Z,17.92
2018-04-23T21:34:29.897Z,17.83
2018-04-23T21:36:57.332Z,17.82
2018-04-23T21:39:24.921Z,17.87
2018-04-23T21:41:52.380Z,17.87
2018-04-23T21:44:19.845Z,17.88
2018-04-23T21:46:47.284Z,17.76
2018-04-23T21:49:14.700Z,17.66
2018-04-23T21:51:42.157Z,17.65
2018-04-23T21:54:09.646Z,17.68
2018-04-23T21:56:37.104Z,17.70
2018-04-23T21:59:04.525Z,17.76
2018-04-23T22:01:31.996Z,17.83
2018-04-23T22:03:59.427Z,17.85
2018-04-23T22:06:26.811Z,17.88
2018-04-23T22:08:54.312Z,17.89
2018-04-23T22:11:21.956Z,17.78
2018-04-23T22:13:49.396Z,17.66
2018-04-23T22:16:16.863Z,17.48
2018-04-23T22:18:44.251Z,17.12
2018-04-23T22:21:11.713Z,16.65
2018-04-23T22:23:39.217Z,16.40
2018-04-23T22:26:06.643Z,16.35
2018-04-23T22:28:34.089Z,16.53
2018-04-23T22:31:01.568Z,16.61
2018-04-23T22:33:29.025Z,16.64
2018-04-23T22:35:56.435Z,16.68
2018-04-23T22:38:23.869Z,16.71
2018-04-23T22:40:51.266Z,16.67
2018-04-23T22:43:18.758Z,16.73
2018-04-23T22:45:46.246Z,16.87
2018-04-23T22:48:13.728Z,16.84
2018-04-23T22:50:41.195Z,16.79
2018-04-23T22:53:08.619Z,16.84
2018-04-23T22:55:36.094Z,16.84
2018-04-23T22:58:03.515Z,16.88
2018-04-23T23:00:30.926Z,16.88
2018-04-23T23:02:58.326Z,16.86
2018-04-23T23:05:25.796Z,16.70
2018-04-23T23:07:53.278Z,16.63
2018-04-23T23:10:20.710Z,16.56
2018-04-23T23:12:48.100Z,16.69
2018-04-23T23:15:15.535Z,16.82
2018-04-23T23:17:42.972Z,16.90
2018-04-23T23:20:10.399Z,16.88
2018-04-23T23:22:38.033Z,16.81
2018-04-23T23:25:05.464Z,16.71
2018-04-23T23:27:32.991Z,16.69
2018-04-23T23:30:00.309Z,16.57
2018-04-23T23:32:27.743Z,16.41
2018-04-23T23:34:55.310Z,16.23
2018-04-23T23:37:22.715Z,16.36
2018-04-23T23:39:50.163Z,16.48
2018-04-23T23:42:17.607Z,16.49
2018-04-23T23:44:44.993Z,16.47
2018-04-23T23:47:12.455Z,16.46
2018-04-23T23:49:39.851Z,16.42
2018-04-23T23:52:07.313Z,16.38
2018-04-23T23:54:34.885Z,16.33
2018-04-23T23:57:02.321Z,16.24
2018-04-23T23:59:29.728Z,16.18
